sensor_id;sensor_type;location;lat;lon;timestamp;P1;durP1;ratioP1;P2;durP2;ratioP2
43118;SDS011;28729;49.838;8.650;2023-10-13T00:01:02;13.82;;;6.80;;
43118;SDS011;28729;49.838;8.650;2023-10-13T00:05:06;16.38;;;6.82;;
43118;SDS011;28729;49.838;8.650;2023-10-13T00:09:09;13.95;;;6.57;;
43118;SDS011;28729;49.838;8.650;2023-10-13T00:13:16;15.55;;;6.45;;
43118;SDS011;28729;49.838;8.650;2023-10-13T00:17:20;11.65;;;6.32;;
43118;SDS011;28729;49.838;8.650;2023-10-13T00:21:26;13.32;;;5.95;;
43118;SDS011;28729;49.838;8.650;2023-10-13T00:25:34;15.07;;;6.32;;
43118;SDS011;28729;49.838;8.650;2023-10-13T00:29:51;14.40;;;6.55;;
43118;SDS011;28729;49.838;8.650;2023-10-13T00:34:05;12.55;;;6.20;;
43118;SDS011;28729;49.838;8.650;2023-10-13T00:38:38;12.02;;;5.82;;
43118;SDS011;28729;49.838;8.650;2023-10-13T00:42:41;13.63;;;6.20;;
43118;SDS011;28729;49.838;8.650;2023-10-13T00:46:52;13.82;;;6.78;;
43118;SDS011;28729;49.838;8.650;2023-10-13T00:51:02;15.77;;;7.18;;
43118;SDS011;28729;49.838;8.650;2023-10-13T00:55:19;14.88;;;6.43;;
43118;SDS011;28729;49.838;8.650;2023-10-13T00:59:24;16.52;;;6.78;;
43118;SDS011;28729;49.838;8.650;2023-10-13T01:03:27;13.35;;;6.50;;
43118;SDS011;28729;49.838;8.650;2023-10-13T01:07:29;14.47;;;6.40;;
43118;SDS011;28729;49.838;8.650;2023-10-13T01:11:30;18.37;;;6.53;;
43118;SDS011;28729;49.838;8.650;2023-10-13T01:15:33;19.60;;;6.35;;
43118;SDS011;28729;49.838;8.650;2023-10-13T01:19:35;14.70;;;6.43;;
43118;SDS011;28729;49.838;8.650;2023-10-13T01:23:44;12.18;;;5.93;;
43118;SDS011;28729;49.838;8.650;2023-10-13T01:27:48;14.38;;;6.18;;
43118;SDS011;28729;49.838;8.650;2023-10-13T01:31:50;17.63;;;5.90;;
43118;SDS011;28729;49.838;8.650;2023-10-13T01:35:52;12.30;;;6.40;;
43118;SDS011;28729;49.838;8.650;2023-10-13T01:39:56;12.50;;;6.78;;
43118;SDS011;28729;49.838;8.650;2023-10-13T01:43:58;14.13;;;6.35;;
43118;SDS011;28729;49.838;8.650;2023-10-13T01:48:00;19.40;;;6.20;;
43118;SDS011;28729;49.838;8.650;2023-10-13T01:52:03;15.13;;;5.95;;
43118;SDS011;28729;49.838;8.650;2023-10-13T01:56:05;17.15;;;5.80;;
43118;SDS011;28729;49.838;8.650;2023-10-13T02:00:12;15.52;;;6.53;;
43118;SDS011;28729;49.838;8.650;2023-10-13T02:04:21;13.07;;;6.40;;
43118;SDS011;28729;49.838;8.650;2023-10-13T02:08:23;13.18;;;7.18;;
43118;SDS011;28729;49.838;8.650;2023-10-13T02:12:26;11.75;;;6.03;;
43118;SDS011;28729;49.838;8.650;2023-10-13T02:16:38;12.40;;;7.60;;
43118;SDS011;28729;49.838;8.650;2023-10-13T02:20:41;15.13;;;6.80;;
43118;SDS011;28729;49.838;8.650;2023-10-13T02:24:44;14.60;;;6.47;;
43118;SDS011;28729;49.838;8.650;2023-10-13T02:28:48;14.63;;;7.15;;
43118;SDS011;28729;49.838;8.650;2023-10-13T02:32:56;13.65;;;6.82;;
43118;SDS011;28729;49.838;8.650;2023-10-13T02:41:01;15.45;;;7.03;;
43118;SDS011;28729;49.838;8.650;2023-10-13T02:45:10;18.92;;;6.85;;
43118;SDS011;28729;49.838;8.650;2023-10-13T02:49:14;12.88;;;6.75;;
43118;SDS011;28729;49.838;8.650;2023-10-13T02:53:21;16.60;;;6.80;;
43118;SDS011;28729;49.838;8.650;2023-10-13T02:57:22;14.63;;;6.85;;
43118;SDS011;28729;49.838;8.650;2023-10-13T03:01:25;12.88;;;6.28;;
43118;SDS011;28729;49.838;8.650;2023-10-13T03:05:34;18.88;;;7.20;;
43118;SDS011;28729;49.838;8.650;2023-10-13T03:09:37;13.90;;;7.10;;
43118;SDS011;28729;49.838;8.650;2023-10-13T03:13:39;14.00;;;7.17;;
43118;SDS011;28729;49.838;8.650;2023-10-13T03:17:46;14.63;;;6.20;;
43118;SDS011;28729;49.838;8.650;2023-10-13T03:21:48;13.52;;;6.30;;
43118;SDS011;28729;49.838;8.650;2023-10-13T03:25:56;12.98;;;6.88;;
43118;SDS011;28729;49.838;8.650;2023-10-13T03:29:58;13.53;;;6.30;;
43118;SDS011;28729;49.838;8.650;2023-10-13T03:34:05;16.27;;;6.43;;
43118;SDS011;28729;49.838;8.650;2023-10-13T03:38:11;17.83;;;7.93;;
43118;SDS011;28729;49.838;8.650;2023-10-13T03:42:18;14.40;;;6.28;;
43118;SDS011;28729;49.838;8.650;2023-10-13T03:46:21;17.33;;;6.60;;
43118;SDS011;28729;49.838;8.650;2023-10-13T03:50:23;15.23;;;6.45;;
43118;SDS011;28729;49.838;8.650;2023-10-13T03:54:33;16.13;;;6.28;;
43118;SDS011;28729;49.838;8.650;2023-10-13T03:58:36;17.13;;;6.57;;
43118;SDS011;28729;49.838;8.650;2023-10-13T04:02:40;15.38;;;6.85;;
43118;SDS011;28729;49.838;8.650;2023-10-13T04:06:49;9.63;;;6.03;;
43118;SDS011;28729;49.838;8.650;2023-10-13T04:11:03;17.13;;;7.03;;
43118;SDS011;28729;49.838;8.650;2023-10-13T04:15:24;17.17;;;7.68;;
43118;SDS011;28729;49.838;8.650;2023-10-13T04:19:28;14.15;;;5.82;;
43118;SDS011;28729;49.838;8.650;2023-10-13T04:23:30;17.10;;;5.63;;
43118;SDS011;28729;49.838;8.650;2023-10-13T04:27:52;11.55;;;5.78;;
43118;SDS011;28729;49.838;8.650;2023-10-13T04:31:56;13.00;;;5.65;;
43118;SDS011;28729;49.838;8.650;2023-10-13T04:36:12;16.73;;;5.70;;
43118;SDS011;28729;49.838;8.650;2023-10-13T04:40:27;15.80;;;6.47;;
43118;SDS011;28729;49.838;8.650;2023-10-13T04:44:37;11.95;;;5.40;;
43118;SDS011;28729;49.838;8.650;2023-10-13T04:48:54;13.18;;;6.05;;
43118;SDS011;28729;49.838;8.650;2023-10-13T04:53:02;12.57;;;5.85;;
43118;SDS011;28729;49.838;8.650;2023-10-13T04:57:04;11.55;;;5.68;;
43118;SDS011;28729;49.838;8.650;2023-10-13T05:01:18;13.63;;;5.13;;
43118;SDS011;28729;49.838;8.650;2023-10-13T05:05:26;8.07;;;4.43;;
43118;SDS011;28729;49.838;8.650;2023-10-13T05:09:55;11.32;;;5.72;;
43118;SDS011;28729;49.838;8.650;2023-10-13T05:14:15;17.30;;;5.18;;
43118;SDS011;28729;49.838;8.650;2023-10-13T05:18:37;10.88;;;4.93;;
43118;SDS011;28729;49.838;8.650;2023-10-13T05:22:57;15.63;;;5.38;;
43118;SDS011;28729;49.838;8.650;2023-10-13T05:27:19;17.50;;;5.40;;
43118;SDS011;28729;49.838;8.650;2023-10-13T05:31:39;9.52;;;4.65;;
43118;SDS011;28729;49.838;8.650;2023-10-13T05:36:01;10.98;;;5.05;;
43118;SDS011;28729;49.838;8.650;2023-10-13T05:40:21;14.88;;;5.30;;
43118;SDS011;28729;49.838;8.650;2023-10-13T05:44:43;13.83;;;4.63;;
43118;SDS011;28729;49.838;8.650;2023-10-13T05:48:57;13.18;;;5.43;;
43118;SDS011;28729;49.838;8.650;2023-10-13T05:53:00;9.02;;;4.35;;
43118;SDS011;28729;49.838;8.650;2023-10-13T05:57:02;10.90;;;4.97;;
43118;SDS011;28729;49.838;8.650;2023-10-13T06:01:23;11.70;;;4.93;;
43118;SDS011;28729;49.838;8.650;2023-10-13T06:05:44;11.50;;;4.32;;
43118;SDS011;28729;49.838;8.650;2023-10-13T06:10:04;13.02;;;4.97;;
43118;SDS011;28729;49.838;8.650;2023-10-13T06:14:26;16.55;;;4.47;;
43118;SDS011;28729;49.838;8.650;2023-10-13T06:18:47;10.80;;;5.30;;
43118;SDS011;28729;49.838;8.650;2023-10-13T06:23:07;14.60;;;5.32;;
43118;SDS011;28729;49.838;8.650;2023-10-13T06:27:28;19.00;;;5.70;;
43118;SDS011;28729;49.838;8.650;2023-10-13T06:31:48;14.20;;;5.65;;
43118;SDS011;28729;49.838;8.650;2023-10-13T06:35:50;14.60;;;5.38;;
43118;SDS011;28729;49.838;8.650;2023-10-13T06:39:52;8.93;;;4.60;;
43118;SDS011;28729;49.838;8.650;2023-10-13T06:44:04;9.23;;;3.90;;
43118;SDS011;28729;49.838;8.650;2023-10-13T06:48:16;13.43;;;4.43;;
43118;SDS011;28729;49.838;8.650;2023-10-13T06:52:20;14.63;;;3.90;;
43118;SDS011;28729;49.838;8.650;2023-10-13T06:56:31;15.95;;;4.03;;
43118;SDS011;28729;49.838;8.650;2023-10-13T07:00:34;12.07;;;4.65;;
43118;SDS011;28729;49.838;8.650;2023-10-13T07:04:37;14.63;;;4.38;;
43118;SDS011;28729;49.838;8.650;2023-10-13T07:08:42;12.80;;;4.28;;
43118;SDS011;28729;49.838;8.650;2023-10-13T07:12:52;12.32;;;5.13;;
43118;SDS011;28729;49.838;8.650;2023-10-13T07:17:00;16.25;;;5.00;;
43118;SDS011;28729;49.838;8.650;2023-10-13T07:21:04;16.10;;;4.63;;
43118;SDS011;28729;49.838;8.650;2023-10-13T07:25:11;14.68;;;4.50;;
43118;SDS011;28729;49.838;8.650;2023-10-13T07:29:26;11.25;;;4.38;;
43118;SDS011;28729;49.838;8.650;2023-10-13T07:33:27;12.40;;;4.77;;
43118;SDS011;28729;49.838;8.650;2023-10-13T07:37:33;12.07;;;3.95;;
43118;SDS011;28729;49.838;8.650;2023-10-13T07:41:37;17.33;;;5.27;;
43118;SDS011;28729;49.838;8.650;2023-10-13T07:45:40;6.70;;;4.10;;
43118;SDS011;28729;49.838;8.650;2023-10-13T07:49:43;12.93;;;4.30;;
43118;SDS011;28729;49.838;8.650;2023-10-13T07:53:45;14.15;;;5.07;;
43118;SDS011;28729;49.838;8.650;2023-10-13T07:57:50;10.65;;;4.60;;
43118;SDS011;28729;49.838;8.650;2023-10-13T08:01:56;7.28;;;4.00;;
43118;SDS011;28729;49.838;8.650;2023-10-13T08:06:15;15.65;;;4.10;;
43118;SDS011;28729;49.838;8.650;2023-10-13T08:10:22;10.32;;;4.20;;
43118;SDS011;28729;49.838;8.650;2023-10-13T08:14:31;10.93;;;5.20;;
43118;SDS011;28729;49.838;8.650;2023-10-13T08:18:39;11.15;;;4.57;;
43118;SDS011;28729;49.838;8.650;2023-10-13T08:22:43;10.10;;;4.88;;
43118;SDS011;28729;49.838;8.650;2023-10-13T08:26:49;7.68;;;3.95;;
43118;SDS011;28729;49.838;8.650;2023-10-13T08:31:10;13.45;;;4.38;;
43118;SDS011;28729;49.838;8.650;2023-10-13T08:35:28;13.93;;;4.18;;
43118;SDS011;28729;49.838;8.650;2023-10-13T08:39:36;11.48;;;4.25;;
43118;SDS011;28729;49.838;8.650;2023-10-13T08:44:01;12.65;;;4.50;;
43118;SDS011;28729;49.838;8.650;2023-10-13T08:48:07;11.90;;;4.40;;
43118;SDS011;28729;49.838;8.650;2023-10-13T08:52:14;9.93;;;4.22;;
43118;SDS011;28729;49.838;8.650;2023-10-13T08:56:37;10.77;;;4.35;;
43118;SDS011;28729;49.838;8.650;2023-10-13T09:00:48;9.23;;;4.75;;
43118;SDS011;28729;49.838;8.650;2023-10-13T09:05:14;11.23;;;4.47;;
43118;SDS011;28729;49.838;8.650;2023-10-13T09:13:53;9.85;;;5.10;;
43118;SDS011;28729;49.838;8.650;2023-10-13T09:17:55;12.50;;;4.55;;
43118;SDS011;28729;49.838;8.650;2023-10-13T09:22:28;8.40;;;4.70;;
43118;SDS011;28729;49.838;8.650;2023-10-13T09:26:38;9.85;;;5.00;;
43118;SDS011;28729;49.838;8.650;2023-10-13T09:30:47;8.88;;;4.65;;
43118;SDS011;28729;49.838;8.650;2023-10-13T09:35:01;11.20;;;4.30;;
43118;SDS011;28729;49.838;8.650;2023-10-13T09:39:04;9.27;;;4.65;;
43118;SDS011;28729;49.838;8.650;2023-10-13T09:43:32;9.70;;;4.53;;
43118;SDS011;28729;49.838;8.650;2023-10-13T09:47:34;12.25;;;4.95;;
43118;SDS011;28729;49.838;8.650;2023-10-13T09:51:42;14.73;;;5.22;;
43118;SDS011;28729;49.838;8.650;2023-10-13T09:55:48;9.45;;;5.18;;
43118;SDS011;28729;49.838;8.650;2023-10-13T09:59:52;8.15;;;4.63;;
43118;SDS011;28729;49.838;8.650;2023-10-13T10:04:11;13.32;;;4.97;;
43118;SDS011;28729;49.838;8.650;2023-10-13T10:08:23;12.60;;;5.07;;
43118;SDS011;28729;49.838;8.650;2023-10-13T10:12:42;10.07;;;4.32;;
43118;SDS011;28729;49.838;8.650;2023-10-13T10:21:09;9.75;;;4.40;;
43118;SDS011;28729;49.838;8.650;2023-10-13T10:25:13;11.15;;;4.25;;
43118;SDS011;28729;49.838;8.650;2023-10-13T10:29:27;8.45;;;4.18;;
43118;SDS011;28729;49.838;8.650;2023-10-13T10:33:30;9.40;;;4.15;;
43118;SDS011;28729;49.838;8.650;2023-10-13T10:37:35;7.63;;;4.28;;
43118;SDS011;28729;49.838;8.650;2023-10-13T10:41:41;10.30;;;5.10;;
43118;SDS011;28729;49.838;8.650;2023-10-13T10:45:47;9.10;;;4.50;;
43118;SDS011;28729;49.838;8.650;2023-10-13T10:49:52;14.77;;;4.57;;
43118;SDS011;28729;49.838;8.650;2023-10-13T10:53:54;12.35;;;4.32;;
43118;SDS011;28729;49.838;8.650;2023-10-13T10:57:59;9.07;;;4.82;;
43118;SDS011;28729;49.838;8.650;2023-10-13T11:02:03;10.52;;;4.28;;
43118;SDS011;28729;49.838;8.650;2023-10-13T11:06:05;7.15;;;3.45;;
43118;SDS011;28729;49.838;8.650;2023-10-13T11:10:16;8.35;;;4.03;;
43118;SDS011;28729;49.838;8.650;2023-10-13T11:14:31;10.05;;;4.10;;
43118;SDS011;28729;49.838;8.650;2023-10-13T11:18:34;11.45;;;4.63;;
43118;SDS011;28729;49.838;8.650;2023-10-13T11:22:48;10.05;;;4.15;;
43118;SDS011;28729;49.838;8.650;2023-10-13T11:26:52;14.35;;;4.32;;
43118;SDS011;28729;49.838;8.650;2023-10-13T11:30:56;9.60;;;3.90;;
43118;SDS011;28729;49.838;8.650;2023-10-13T11:35:09;10.63;;;3.78;;
43118;SDS011;28729;49.838;8.650;2023-10-13T11:39:27;9.93;;;4.93;;
43118;SDS011;28729;49.838;8.650;2023-10-13T11:43:36;12.38;;;4.65;;
43118;SDS011;28729;49.838;8.650;2023-10-13T11:47:46;7.15;;;3.97;;
43118;SDS011;28729;49.838;8.650;2023-10-13T11:52:01;11.02;;;4.80;;
43118;SDS011;28729;49.838;8.650;2023-10-13T11:56:11;9.40;;;4.55;;
43118;SDS011;28729;49.838;8.650;2023-10-13T12:04:27;8.68;;;4.30;;
43118;SDS011;28729;49.838;8.650;2023-10-13T12:08:53;11.50;;;4.80;;
43118;SDS011;28729;49.838;8.650;2023-10-13T12:12:55;9.45;;;4.68;;
43118;SDS011;28729;49.838;8.650;2023-10-13T12:17:01;7.45;;;4.82;;
43118;SDS011;28729;49.838;8.650;2023-10-13T12:21:09;11.93;;;5.07;;
43118;SDS011;28729;49.838;8.650;2023-10-13T12:25:18;7.03;;;4.10;;
43118;SDS011;28729;49.838;8.650;2023-10-13T12:29:23;9.27;;;4.60;;
43118;SDS011;28729;49.838;8.650;2023-10-13T12:33:31;5.77;;;4.53;;
43118;SDS011;28729;49.838;8.650;2023-10-13T12:37:41;10.40;;;4.68;;
43118;SDS011;28729;49.838;8.650;2023-10-13T12:46:04;12.07;;;5.15;;
43118;SDS011;28729;49.838;8.650;2023-10-13T12:50:24;9.60;;;5.30;;
43118;SDS011;28729;49.838;8.650;2023-10-13T12:54:47;7.60;;;5.15;;
43118;SDS011;28729;49.838;8.650;2023-10-13T12:58:58;10.27;;;5.60;;
43118;SDS011;28729;49.838;8.650;2023-10-13T13:03:00;9.13;;;4.75;;
43118;SDS011;28729;49.838;8.650;2023-10-13T13:07:03;10.55;;;4.80;;
43118;SDS011;28729;49.838;8.650;2023-10-13T13:11:05;8.57;;;4.63;;
43118;SDS011;28729;49.838;8.650;2023-10-13T13:15:08;7.40;;;4.90;;
43118;SDS011;28729;49.838;8.650;2023-10-13T13:19:10;12.95;;;5.45;;
43118;SDS011;28729;49.838;8.650;2023-10-13T13:23:15;8.43;;;4.20;;
43118;SDS011;28729;49.838;8.650;2023-10-13T13:27:19;11.65;;;4.60;;
43118;SDS011;28729;49.838;8.650;2023-10-13T13:31:25;11.30;;;4.65;;
43118;SDS011;28729;49.838;8.650;2023-10-13T13:35:28;11.23;;;4.40;;
43118;SDS011;28729;49.838;8.650;2023-10-13T13:39:35;9.68;;;4.50;;
43118;SDS011;28729;49.838;8.650;2023-10-13T13:43:47;7.72;;;4.18;;
43118;SDS011;28729;49.838;8.650;2023-10-13T13:47:52;10.00;;;4.28;;
43118;SDS011;28729;49.838;8.650;2023-10-13T13:51:56;7.28;;;3.72;;
43118;SDS011;28729;49.838;8.650;2023-10-13T14:00:04;10.60;;;4.20;;
43118;SDS011;28729;49.838;8.650;2023-10-13T14:04:10;8.57;;;4.38;;
43118;SDS011;28729;49.838;8.650;2023-10-13T14:08:12;12.10;;;4.35;;
43118;SDS011;28729;49.838;8.650;2023-10-13T14:12:17;10.05;;;4.63;;
43118;SDS011;28729;49.838;8.650;2023-10-13T14:16:43;18.58;;;5.78;;
43118;SDS011;28729;49.838;8.650;2023-10-13T14:20:52;14.82;;;4.55;;
43118;SDS011;28729;49.838;8.650;2023-10-13T14:24:54;8.63;;;3.95;;
43118;SDS011;28729;49.838;8.650;2023-10-13T14:28:56;12.70;;;4.93;;
43118;SDS011;28729;49.838;8.650;2023-10-13T14:33:12;14.38;;;4.30;;
43118;SDS011;28729;49.838;8.650;2023-10-13T14:37:14;6.95;;;4.60;;
43118;SDS011;28729;49.838;8.650;2023-10-13T14:41:22;8.93;;;4.18;;
43118;SDS011;28729;49.838;8.650;2023-10-13T14:45:24;9.57;;;4.53;;
43118;SDS011;28729;49.838;8.650;2023-10-13T14:53:28;8.95;;;4.13;;
43118;SDS011;28729;49.838;8.650;2023-10-13T14:57:34;11.10;;;4.78;;
43118;SDS011;28729;49.838;8.650;2023-10-13T15:01:41;7.95;;;4.47;;
43118;SDS011;28729;49.838;8.650;2023-10-13T15:05:43;7.78;;;4.35;;
43118;SDS011;28729;49.838;8.650;2023-10-13T15:09:45;12.23;;;4.35;;
43118;SDS011;28729;49.838;8.650;2023-10-13T15:13:47;10.63;;;4.32;;
43118;SDS011;28729;49.838;8.650;2023-10-13T15:17:54;11.90;;;4.00;;
43118;SDS011;28729;49.838;8.650;2023-10-13T15:21:58;8.65;;;3.97;;
43118;SDS011;28729;49.838;8.650;2023-10-13T15:26:05;11.18;;;3.47;;
43118;SDS011;28729;49.838;8.650;2023-10-13T15:30:11;7.50;;;4.20;;
43118;SDS011;28729;49.838;8.650;2023-10-13T15:34:25;7.72;;;3.72;;
43118;SDS011;28729;49.838;8.650;2023-10-13T15:38:30;7.80;;;4.03;;
43118;SDS011;28729;49.838;8.650;2023-10-13T15:42:32;9.48;;;3.63;;
43118;SDS011;28729;49.838;8.650;2023-10-13T15:46:35;10.07;;;4.30;;
43118;SDS011;28729;49.838;8.650;2023-10-13T15:50:57;12.52;;;4.00;;
43118;SDS011;28729;49.838;8.650;2023-10-13T15:59:01;8.83;;;4.07;;
43118;SDS011;28729;49.838;8.650;2023-10-13T16:03:03;9.27;;;3.85;;
43118;SDS011;28729;49.838;8.650;2023-10-13T16:07:13;9.52;;;4.10;;
43118;SDS011;28729;49.838;8.650;2023-10-13T16:11:15;6.78;;;3.13;;
43118;SDS011;28729;49.838;8.650;2023-10-13T16:15:19;9.77;;;4.35;;
43118;SDS011;28729;49.838;8.650;2023-10-13T16:19:22;7.95;;;3.55;;
43118;SDS011;28729;49.838;8.650;2023-10-13T16:23:25;8.55;;;4.15;;
43118;SDS011;28729;49.838;8.650;2023-10-13T16:27:29;11.23;;;3.53;;
43118;SDS011;28729;49.838;8.650;2023-10-13T16:31:32;8.38;;;3.42;;
43118;SDS011;28729;49.838;8.650;2023-10-13T16:35:34;9.90;;;3.63;;
43118;SDS011;28729;49.838;8.650;2023-10-13T16:39:35;5.50;;;3.07;;
43118;SDS011;28729;49.838;8.650;2023-10-13T16:43:41;11.18;;;3.75;;
43118;SDS011;28729;49.838;8.650;2023-10-13T16:47:43;6.57;;;3.30;;
43118;SDS011;28729;49.838;8.650;2023-10-13T16:51:45;10.38;;;3.60;;
43118;SDS011;28729;49.838;8.650;2023-10-13T16:55:47;11.38;;;3.90;;
43118;SDS011;28729;49.838;8.650;2023-10-13T16:59:49;10.38;;;3.33;;
43118;SDS011;28729;49.838;8.650;2023-10-13T17:03:50;11.23;;;4.67;;
43118;SDS011;28729;49.838;8.650;2023-10-13T17:07:53;7.93;;;3.53;;
43118;SDS011;28729;49.838;8.650;2023-10-13T17:11:55;7.43;;;3.60;;
43118;SDS011;28729;49.838;8.650;2023-10-13T17:15:56;11.00;;;4.10;;
43118;SDS011;28729;49.838;8.650;2023-10-13T17:20:01;13.95;;;3.75;;
43118;SDS011;28729;49.838;8.650;2023-10-13T17:24:07;16.63;;;3.58;;
43118;SDS011;28729;49.838;8.650;2023-10-13T17:28:09;13.10;;;3.90;;
43118;SDS011;28729;49.838;8.650;2023-10-13T17:32:17;10.82;;;3.08;;
43118;SDS011;28729;49.838;8.650;2023-10-13T17:41:39;11.15;;;3.42;;
43118;SDS011;28729;49.838;8.650;2023-10-13T17:45:51;8.90;;;3.25;;
43118;SDS011;28729;49.838;8.650;2023-10-13T17:49:53;9.13;;;2.97;;
43118;SDS011;28729;49.838;8.650;2023-10-13T17:53:55;7.68;;;3.05;;
43118;SDS011;28729;49.838;8.650;2023-10-13T17:58:01;8.52;;;4.22;;
43118;SDS011;28729;49.838;8.650;2023-10-13T18:02:03;8.15;;;2.63;;
43118;SDS011;28729;49.838;8.650;2023-10-13T18:06:08;8.73;;;3.00;;
43118;SDS011;28729;49.838;8.650;2023-10-13T18:10:27;8.05;;;3.22;;
43118;SDS011;28729;49.838;8.650;2023-10-13T18:14:34;11.13;;;2.80;;
43118;SDS011;28729;49.838;8.650;2023-10-13T18:19:03;10.50;;;3.40;;
43118;SDS011;28729;49.838;8.650;2023-10-13T18:23:24;7.53;;;2.50;;
43118;SDS011;28729;49.838;8.650;2023-10-13T18:27:26;6.95;;;2.92;;
43118;SDS011;28729;49.838;8.650;2023-10-13T18:31:42;6.25;;;2.45;;
43118;SDS011;28729;49.838;8.650;2023-10-13T18:35:44;5.00;;;2.50;;
43118;SDS011;28729;49.838;8.650;2023-10-13T18:39:47;5.35;;;2.60;;
43118;SDS011;28729;49.838;8.650;2023-10-13T18:43:50;10.13;;;3.42;;
43118;SDS011;28729;49.838;8.650;2023-10-13T18:47:55;6.97;;;3.30;;
43118;SDS011;28729;49.838;8.650;2023-10-13T18:51:57;5.72;;;2.67;;
43118;SDS011;28729;49.838;8.650;2023-10-13T18:56:08;7.28;;;2.88;;
43118;SDS011;28729;49.838;8.650;2023-10-13T19:00:17;6.45;;;3.28;;
43118;SDS011;28729;49.838;8.650;2023-10-13T19:04:24;7.13;;;2.75;;
43118;SDS011;28729;49.838;8.650;2023-10-13T19:08:26;9.18;;;2.72;;
43118;SDS011;28729;49.838;8.650;2023-10-13T19:12:31;8.80;;;2.78;;
43118;SDS011;28729;49.838;8.650;2023-10-13T19:16:33;5.43;;;2.78;;
43118;SDS011;28729;49.838;8.650;2023-10-13T19:20:39;7.75;;;2.58;;
43118;SDS011;28729;49.838;8.650;2023-10-13T19:24:44;7.07;;;2.85;;
43118;SDS011;28729;49.838;8.650;2023-10-13T19:28:47;9.35;;;3.13;;
43118;SDS011;28729;49.838;8.650;2023-10-13T19:32:49;5.80;;;2.75;;
43118;SDS011;28729;49.838;8.650;2023-10-13T19:36:54;6.20;;;2.65;;
43118;SDS011;28729;49.838;8.650;2023-10-13T19:41:04;6.63;;;2.42;;
43118;SDS011;28729;49.838;8.650;2023-10-13T19:45:18;7.70;;;2.47;;
43118;SDS011;28729;49.838;8.650;2023-10-13T19:49:20;6.10;;;2.90;;
43118;SDS011;28729;49.838;8.650;2023-10-13T19:53:22;5.85;;;2.60;;
43118;SDS011;28729;49.838;8.650;2023-10-13T19:57:24;7.05;;;3.42;;
43118;SDS011;28729;49.838;8.650;2023-10-13T20:01:27;7.18;;;3.47;;
43118;SDS011;28729;49.838;8.650;2023-10-13T20:05:35;8.77;;;3.38;;
43118;SDS011;28729;49.838;8.650;2023-10-13T20:09:37;6.28;;;2.83;;
43118;SDS011;28729;49.838;8.650;2023-10-13T20:13:39;9.00;;;3.33;;
43118;SDS011;28729;49.838;8.650;2023-10-13T20:17:42;4.97;;;2.38;;
43118;SDS011;28729;49.838;8.650;2023-10-13T20:21:47;5.00;;;2.20;;
43118;SDS011;28729;49.838;8.650;2023-10-13T20:29:54;6.95;;;3.10;;
43118;SDS011;28729;49.838;8.650;2023-10-13T20:33:56;6.15;;;2.60;;
43118;SDS011;28729;49.838;8.650;2023-10-13T20:37:58;8.37;;;2.57;;
43118;SDS011;28729;49.838;8.650;2023-10-13T20:42:01;6.50;;;2.88;;
43118;SDS011;28729;49.838;8.650;2023-10-13T20:46:06;6.28;;;2.80;;
43118;SDS011;28729;49.838;8.650;2023-10-13T20:50:08;5.93;;;2.67;;
43118;SDS011;28729;49.838;8.650;2023-10-13T20:54:13;10.23;;;2.90;;
43118;SDS011;28729;49.838;8.650;2023-10-13T20:58:15;8.05;;;3.03;;
43118;SDS011;28729;49.838;8.650;2023-10-13T21:02:19;6.28;;;2.65;;
43118;SDS011;28729;49.838;8.650;2023-10-13T21:06:24;6.45;;;2.67;;
43118;SDS011;28729;49.838;8.650;2023-10-13T21:10:25;9.02;;;3.55;;
43118;SDS011;28729;49.838;8.650;2023-10-13T21:14:27;7.75;;;3.08;;
43118;SDS011;28729;49.838;8.650;2023-10-13T21:18:29;5.90;;;3.03;;
43118;SDS011;28729;49.838;8.650;2023-10-13T21:22:33;8.65;;;2.85;;
43118;SDS011;28729;49.838;8.650;2023-10-13T21:26:38;7.25;;;3.05;;
43118;SDS011;28729;49.838;8.650;2023-10-13T21:30:40;8.02;;;3.00;;
43118;SDS011;28729;49.838;8.650;2023-10-13T21:34:42;6.88;;;3.40;;
43118;SDS011;28729;49.838;8.650;2023-10-13T21:38:45;8.48;;;3.00;;
43118;SDS011;28729;49.838;8.650;2023-10-13T21:42:52;10.48;;;3.13;;
43118;SDS011;28729;49.838;8.650;2023-10-13T21:46:54;5.13;;;2.70;;
43118;SDS011;28729;49.838;8.650;2023-10-13T21:50:57;14.93;;;3.50;;
43118;SDS011;28729;49.838;8.650;2023-10-13T21:55:00;12.55;;;4.40;;
43118;SDS011;28729;49.838;8.650;2023-10-13T21:59:02;7.63;;;3.25;;
43118;SDS011;28729;49.838;8.650;2023-10-13T22:03:04;5.87;;;3.10;;
43118;SDS011;28729;49.838;8.650;2023-10-13T22:07:06;5.93;;;2.97;;
43118;SDS011;28729;49.838;8.650;2023-10-13T22:11:09;9.38;;;3.50;;
43118;SDS011;28729;49.838;8.650;2023-10-13T22:19:15;9.02;;;3.10;;
43118;SDS011;28729;49.838;8.650;2023-10-13T22:23:21;7.07;;;3.50;;
43118;SDS011;28729;49.838;8.650;2023-10-13T22:31:25;9.48;;;3.63;;
43118;SDS011;28729;49.838;8.650;2023-10-13T22:35:28;8.93;;;3.72;;
43118;SDS011;28729;49.838;8.650;2023-10-13T22:39:30;9.23;;;4.43;;
43118;SDS011;28729;49.838;8.650;2023-10-13T22:43:35;10.68;;;3.63;;
43118;SDS011;28729;49.838;8.650;2023-10-13T22:47:37;8.17;;;3.73;;
43118;SDS011;28729;49.838;8.650;2023-10-13T22:51:39;11.03;;;3.47;;
43118;SDS011;28729;49.838;8.650;2023-10-13T22:55:40;9.00;;;4.00;;
43118;SDS011;28729;49.838;8.650;2023-10-13T22:59:47;11.05;;;3.63;;
43118;SDS011;28729;49.838;8.650;2023-10-13T23:03:49;7.33;;;3.97;;
43118;SDS011;28729;49.838;8.650;2023-10-13T23:07:58;9.27;;;4.10;;
43118;SDS011;28729;49.838;8.650;2023-10-13T23:12:09;9.07;;;4.03;;
43118;SDS011;28729;49.838;8.650;2023-10-13T23:16:13;12.95;;;3.85;;
43118;SDS011;28729;49.838;8.650;2023-10-13T23:20:15;12.30;;;4.18;;
43118;SDS011;28729;49.838;8.650;2023-10-13T23:24:20;11.05;;;4.55;;
43118;SDS011;28729;49.838;8.650;2023-10-13T23:28:25;11.38;;;3.95;;
43118;SDS011;28729;49.838;8.650;2023-10-13T23:36:38;14.50;;;4.47;;
43118;SDS011;28729;49.838;8.650;2023-10-13T23:40:41;8.35;;;4.13;;
43118;SDS011;28729;49.838;8.650;2023-10-13T23:44:45;8.02;;;4.40;;
43118;SDS011;28729;49.838;8.650;2023-10-13T23:48:48;14.10;;;4.43;;
43118;SDS011;28729;49.838;8.650;2023-10-13T23:52:50;9.43;;;3.87;;
43118;SDS011;28729;49.838;8.650;2023-10-13T23:56:57;8.45;;;4.07;;
